sensor_id;sensor_type;location;lat;lon;timestamp;P1;durP1;ratioP1;P2;durP2;ratioP2
18883;SDS011;9574;47.282;9.640;2023-06-10T00:01:39;5.78;;;4.45;;
18883;SDS011;9574;47.282;9.640;2023-06-10T00:04:06;5.97;;;4.47;;
18883;SDS011;9574;47.282;9.640;2023-06-10T00:06:33;6.63;;;4.72;;
18883;SDS011;9574;47.282;9.640;2023-06-10T00:09:02;5.13;;;4.20;;
18883;SDS011;9574;47.282;9.640;2023-06-10T00:11:31;5.80;;;4.22;;
18883;SDS011;9574;47.282;9.640;2023-06-10T00:13:59;8.68;;;4.78;;
18883;SDS011;9574;47.282;9.640;2023-06-10T00:16:26;4.72;;;4.10;;
18883;SDS011;9574;47.282;9.640;2023-06-10T00:18:53;5.70;;;4.25;;
18883;SDS011;9574;47.282;9.640;2023-06-10T00:21:26;7.43;;;4.78;;
18883;SDS011;9574;47.282;9.640;2023-06-10T00:23:53;5.28;;;3.90;;
18883;SDS011;9574;47.282;9.640;2023-06-10T00:26:20;6.50;;;3.88;;
18883;SDS011;9574;47.282;9.640;2023-06-10T00:28:47;6.55;;;4.35;;
18883;SDS011;9574;47.282;9.640;2023-06-10T00:31:16;5.20;;;4.50;;
18883;SDS011;9574;47.282;9.640;2023-06-10T00:33:43;6.43;;;4.28;;
18883;SDS011;9574;47.282;9.640;2023-06-10T00:36:10;5.22;;;3.95;;
18883;SDS011;9574;47.282;9.640;2023-06-10T00:38:37;4.47;;;4.03;;
18883;SDS011;9574;47.282;9.640;2023-06-10T00:41:05;8.77;;;4.63;;
18883;SDS011;9574;47.282;9.640;2023-06-10T00:43:32;7.05;;;4.15;;
18883;SDS011;9574;47.282;9.640;2023-06-10T00:45:59;4.88;;;3.75;;
18883;SDS011;9574;47.282;9.640;2023-06-10T00:48:28;5.22;;;3.97;;
18883;SDS011;9574;47.282;9.640;2023-06-10T00:50:55;5.47;;;4.18;;
18883;SDS011;9574;47.282;9.640;2023-06-10T00:53:23;5.00;;;4.18;;
18883;SDS011;9574;47.282;9.640;2023-06-10T00:55:50;5.75;;;4.22;;
18883;SDS011;9574;47.282;9.640;2023-06-10T00:58:17;4.40;;;3.65;;
18883;SDS011;9574;47.282;9.640;2023-06-10T01:00:44;6.15;;;3.92;;
18883;SDS011;9574;47.282;9.640;2023-06-10T01:03:12;6.35;;;4.57;;
18883;SDS011;9574;47.282;9.640;2023-06-10T01:05:40;5.30;;;4.10;;
18883;SDS011;9574;47.282;9.640;2023-06-10T01:08:09;6.03;;;4.05;;
18883;SDS011;9574;47.282;9.640;2023-06-10T01:10:43;5.25;;;4.18;;
18883;SDS011;9574;47.282;9.640;2023-06-10T01:13:16;4.85;;;4.07;;
18883;SDS011;9574;47.282;9.640;2023-06-10T01:15:43;4.90;;;3.70;;
18883;SDS011;9574;47.282;9.640;2023-06-10T01:18:11;5.07;;;4.07;;
18883;SDS011;9574;47.282;9.640;2023-06-10T01:20:41;7.18;;;4.22;;
18883;SDS011;9574;47.282;9.640;2023-06-10T01:23:11;5.07;;;4.35;;
18883;SDS011;9574;47.282;9.640;2023-06-10T01:25:39;4.28;;;3.58;;
18883;SDS011;9574;47.282;9.640;2023-06-10T01:28:13;4.63;;;3.88;;
18883;SDS011;9574;47.282;9.640;2023-06-10T01:30:45;5.13;;;4.13;;
18883;SDS011;9574;47.282;9.640;2023-06-10T01:33:17;6.13;;;4.18;;
18883;SDS011;9574;47.282;9.640;2023-06-10T01:35:47;6.60;;;4.10;;
18883;SDS011;9574;47.282;9.640;2023-06-10T01:38:17;5.90;;;3.75;;
18883;SDS011;9574;47.282;9.640;2023-06-10T01:40:46;5.30;;;3.60;;
18883;SDS011;9574;47.282;9.640;2023-06-10T01:43:15;5.20;;;4.07;;
18883;SDS011;9574;47.282;9.640;2023-06-10T01:45:42;5.18;;;4.05;;
18883;SDS011;9574;47.282;9.640;2023-06-10T01:48:09;4.70;;;4.10;;
18883;SDS011;9574;47.282;9.640;2023-06-10T01:50:36;6.35;;;4.22;;
18883;SDS011;9574;47.282;9.640;2023-06-10T01:53:03;5.80;;;4.00;;
18883;SDS011;9574;47.282;9.640;2023-06-10T01:55:32;4.65;;;3.58;;
18883;SDS011;9574;47.282;9.640;2023-06-10T01:57:59;5.78;;;4.25;;
18883;SDS011;9574;47.282;9.640;2023-06-10T02:00:26;4.55;;;3.75;;
18883;SDS011;9574;47.282;9.640;2023-06-10T02:02:53;5.50;;;3.90;;
18883;SDS011;9574;47.282;9.640;2023-06-10T02:05:20;4.88;;;4.28;;
18883;SDS011;9574;47.282;9.640;2023-06-10T02:07:48;4.30;;;3.47;;
18883;SDS011;9574;47.282;9.640;2023-06-10T02:10:15;5.13;;;3.78;;
18883;SDS011;9574;47.282;9.640;2023-06-10T02:12:43;5.63;;;4.13;;
18883;SDS011;9574;47.282;9.640;2023-06-10T02:15:10;4.22;;;3.83;;
18883;SDS011;9574;47.282;9.640;2023-06-10T02:17:37;5.25;;;3.83;;
18883;SDS011;9574;47.282;9.640;2023-06-10T02:20:04;7.45;;;4.10;;
18883;SDS011;9574;47.282;9.640;2023-06-10T02:22:33;6.70;;;4.22;;
18883;SDS011;9574;47.282;9.640;2023-06-10T02:25:00;5.80;;;3.88;;
18883;SDS011;9574;47.282;9.640;2023-06-10T02:27:27;5.72;;;4.30;;
18883;SDS011;9574;47.282;9.640;2023-06-10T02:29:55;5.75;;;3.97;;
18883;SDS011;9574;47.282;9.640;2023-06-10T02:32:22;6.00;;;4.18;;
18883;SDS011;9574;47.282;9.640;2023-06-10T02:34:50;6.07;;;4.18;;
18883;SDS011;9574;47.282;9.640;2023-06-10T02:37:17;5.43;;;3.92;;
18883;SDS011;9574;47.282;9.640;2023-06-10T02:39:45;4.97;;;3.95;;
18883;SDS011;9574;47.282;9.640;2023-06-10T02:42:12;5.72;;;4.07;;
18883;SDS011;9574;47.282;9.640;2023-06-10T02:44:39;5.55;;;4.20;;
18883;SDS011;9574;47.282;9.640;2023-06-10T02:47:07;5.18;;;4.57;;
18883;SDS011;9574;47.282;9.640;2023-06-10T02:49:34;6.82;;;4.00;;
18883;SDS011;9574;47.282;9.640;2023-06-10T02:52:02;6.68;;;4.30;;
18883;SDS011;9574;47.282;9.640;2023-06-10T02:54:29;7.32;;;4.30;;
18883;SDS011;9574;47.282;9.640;2023-06-10T02:56:56;6.50;;;4.65;;
18883;SDS011;9574;47.282;9.640;2023-06-10T02:59:23;6.13;;;4.75;;
18883;SDS011;9574;47.282;9.640;2023-06-10T03:01:52;6.47;;;4.57;;
18883;SDS011;9574;47.282;9.640;2023-06-10T03:04:20;5.90;;;4.43;;
18883;SDS011;9574;47.282;9.640;2023-06-10T03:06:48;7.97;;;5.00;;
18883;SDS011;9574;47.282;9.640;2023-06-10T03:09:15;7.28;;;4.30;;
18883;SDS011;9574;47.282;9.640;2023-06-10T03:11:42;6.50;;;4.68;;
18883;SDS011;9574;47.282;9.640;2023-06-10T03:14:10;6.22;;;4.95;;
18883;SDS011;9574;47.282;9.640;2023-06-10T03:16:37;6.60;;;4.95;;
18883;SDS011;9574;47.282;9.640;2023-06-10T03:19:05;6.47;;;5.15;;
18883;SDS011;9574;47.282;9.640;2023-06-10T03:21:34;7.65;;;5.00;;
18883;SDS011;9574;47.282;9.640;2023-06-10T03:24:02;5.95;;;4.55;;
18883;SDS011;9574;47.282;9.640;2023-06-10T03:26:30;7.00;;;4.55;;
18883;SDS011;9574;47.282;9.640;2023-06-10T03:28:57;6.13;;;4.60;;
18883;SDS011;9574;47.282;9.640;2023-06-10T03:31:24;6.25;;;4.90;;
18883;SDS011;9574;47.282;9.640;2023-06-10T03:33:51;4.20;;;3.80;;
18883;SDS011;9574;47.282;9.640;2023-06-10T03:36:18;6.55;;;4.35;;
18883;SDS011;9574;47.282;9.640;2023-06-10T03:38:46;5.70;;;4.43;;
18883;SDS011;9574;47.282;9.640;2023-06-10T03:41:16;5.55;;;4.22;;
18883;SDS011;9574;47.282;9.640;2023-06-10T03:43:43;5.55;;;4.40;;
18883;SDS011;9574;47.282;9.640;2023-06-10T03:46:10;5.72;;;4.40;;
18883;SDS011;9574;47.282;9.640;2023-06-10T03:48:37;5.60;;;4.30;;
18883;SDS011;9574;47.282;9.640;2023-06-10T03:51:04;6.03;;;4.20;;
18883;SDS011;9574;47.282;9.640;2023-06-10T03:53:32;5.13;;;3.75;;
18883;SDS011;9574;47.282;9.640;2023-06-10T03:56:00;5.53;;;4.97;;
18883;SDS011;9574;47.282;9.640;2023-06-10T03:58:27;5.45;;;4.32;;
18883;SDS011;9574;47.282;9.640;2023-06-10T04:00:54;6.88;;;4.97;;
18883;SDS011;9574;47.282;9.640;2023-06-10T04:03:21;5.60;;;4.60;;
18883;SDS011;9574;47.282;9.640;2023-06-10T04:05:49;7.68;;;5.25;;
18883;SDS011;9574;47.282;9.640;2023-06-10T04:08:16;6.20;;;4.75;;
18883;SDS011;9574;47.282;9.640;2023-06-10T04:10:43;6.90;;;5.30;;
18883;SDS011;9574;47.282;9.640;2023-06-10T04:13:11;7.22;;;5.10;;
18883;SDS011;9574;47.282;9.640;2023-06-10T04:15:39;7.53;;;4.75;;
18883;SDS011;9574;47.282;9.640;2023-06-10T04:18:06;11.32;;;5.40;;
18883;SDS011;9574;47.282;9.640;2023-06-10T04:20:33;6.68;;;5.18;;
18883;SDS011;9574;47.282;9.640;2023-06-10T04:23:00;7.47;;;5.13;;
18883;SDS011;9574;47.282;9.640;2023-06-10T04:25:27;7.15;;;5.47;;
18883;SDS011;9574;47.282;9.640;2023-06-10T04:27:55;7.03;;;5.25;;
18883;SDS011;9574;47.282;9.640;2023-06-10T04:30:23;8.65;;;5.90;;
18883;SDS011;9574;47.282;9.640;2023-06-10T04:32:50;7.07;;;4.88;;
18883;SDS011;9574;47.282;9.640;2023-06-10T04:35:17;7.07;;;4.72;;
18883;SDS011;9574;47.282;9.640;2023-06-10T04:37:44;7.75;;;5.10;;
18883;SDS011;9574;47.282;9.640;2023-06-10T04:40:11;6.28;;;4.80;;
18883;SDS011;9574;47.282;9.640;2023-06-10T04:42:38;8.65;;;5.65;;
18883;SDS011;9574;47.282;9.640;2023-06-10T04:45:06;6.15;;;5.03;;
18883;SDS011;9574;47.282;9.640;2023-06-10T04:47:36;7.63;;;5.05;;
18883;SDS011;9574;47.282;9.640;2023-06-10T04:50:03;6.13;;;4.68;;
18883;SDS011;9574;47.282;9.640;2023-06-10T04:52:31;6.75;;;4.95;;
18883;SDS011;9574;47.282;9.640;2023-06-10T04:54:58;6.32;;;4.78;;
18883;SDS011;9574;47.282;9.640;2023-06-10T04:57:25;6.07;;;5.03;;
18883;SDS011;9574;47.282;9.640;2023-06-10T04:59:52;6.32;;;4.70;;
18883;SDS011;9574;47.282;9.640;2023-06-10T05:02:19;7.45;;;5.38;;
18883;SDS011;9574;47.282;9.640;2023-06-10T05:04:48;7.93;;;5.32;;
18883;SDS011;9574;47.282;9.640;2023-06-10T05:07:15;7.30;;;5.82;;
18883;SDS011;9574;47.282;9.640;2023-06-10T05:09:42;10.90;;;5.80;;
18883;SDS011;9574;47.282;9.640;2023-06-10T05:12:10;11.90;;;6.43;;
18883;SDS011;9574;47.282;9.640;2023-06-10T05:14:37;7.93;;;6.43;;
18883;SDS011;9574;47.282;9.640;2023-06-10T05:17:04;9.30;;;6.18;;
18883;SDS011;9574;47.282;9.640;2023-06-10T05:19:32;8.88;;;6.47;;
18883;SDS011;9574;47.282;9.640;2023-06-10T05:22:02;10.23;;;6.65;;
18883;SDS011;9574;47.282;9.640;2023-06-10T05:24:29;11.35;;;6.20;;
18883;SDS011;9574;47.282;9.640;2023-06-10T05:26:56;8.80;;;6.82;;
18883;SDS011;9574;47.282;9.640;2023-06-10T05:29:23;12.48;;;6.13;;
18883;SDS011;9574;47.282;9.640;2023-06-10T05:31:50;10.40;;;6.07;;
18883;SDS011;9574;47.282;9.640;2023-06-10T05:34:17;8.88;;;6.40;;
18883;SDS011;9574;47.282;9.640;2023-06-10T05:36:44;9.50;;;6.68;;
18883;SDS011;9574;47.282;9.640;2023-06-10T05:39:13;8.85;;;6.43;;
18883;SDS011;9574;47.282;9.640;2023-06-10T05:41:40;9.02;;;6.57;;
18883;SDS011;9574;47.282;9.640;2023-06-10T05:44:07;8.55;;;6.13;;
18883;SDS011;9574;47.282;9.640;2023-06-10T05:46:34;8.30;;;6.20;;
18883;SDS011;9574;47.282;9.640;2023-06-10T05:49:01;8.52;;;6.32;;
18883;SDS011;9574;47.282;9.640;2023-06-10T05:51:28;6.70;;;5.68;;
18883;SDS011;9574;47.282;9.640;2023-06-10T05:53:55;10.45;;;6.25;;
18883;SDS011;9574;47.282;9.640;2023-06-10T05:56:23;7.47;;;5.90;;
18883;SDS011;9574;47.282;9.640;2023-06-10T05:58:50;8.13;;;5.93;;
18883;SDS011;9574;47.282;9.640;2023-06-10T06:01:17;10.48;;;5.55;;
18883;SDS011;9574;47.282;9.640;2023-06-10T06:03:44;9.32;;;5.88;;
18883;SDS011;9574;47.282;9.640;2023-06-10T06:06:11;9.13;;;6.40;;
18883;SDS011;9574;47.282;9.640;2023-06-10T06:08:38;7.72;;;6.28;;
18883;SDS011;9574;47.282;9.640;2023-06-10T06:11:05;9.77;;;6.80;;
18883;SDS011;9574;47.282;9.640;2023-06-10T06:13:34;8.02;;;6.10;;
18883;SDS011;9574;47.282;9.640;2023-06-10T06:16:01;9.07;;;6.47;;
18883;SDS011;9574;47.282;9.640;2023-06-10T06:18:28;9.07;;;6.50;;
18883;SDS011;9574;47.282;9.640;2023-06-10T06:20:55;8.60;;;5.90;;
18883;SDS011;9574;47.282;9.640;2023-06-10T06:23:22;7.80;;;5.20;;
18883;SDS011;9574;47.282;9.640;2023-06-10T06:25:49;8.32;;;6.22;;
18883;SDS011;9574;47.282;9.640;2023-06-10T06:28:15;9.70;;;6.00;;
18883;SDS011;9574;47.282;9.640;2023-06-10T06:30:45;8.45;;;5.65;;
18883;SDS011;9574;47.282;9.640;2023-06-10T06:33:12;7.40;;;5.75;;
18883;SDS011;9574;47.282;9.640;2023-06-10T06:35:39;8.25;;;5.82;;
18883;SDS011;9574;47.282;9.640;2023-06-10T06:38:06;7.53;;;5.93;;
18883;SDS011;9574;47.282;9.640;2023-06-10T06:40:33;7.80;;;6.00;;
18883;SDS011;9574;47.282;9.640;2023-06-10T06:43:00;8.70;;;6.45;;
18883;SDS011;9574;47.282;9.640;2023-06-10T06:45:27;7.90;;;6.25;;
18883;SDS011;9574;47.282;9.640;2023-06-10T06:47:56;9.25;;;5.85;;
18883;SDS011;9574;47.282;9.640;2023-06-10T06:50:23;8.85;;;5.93;;
18883;SDS011;9574;47.282;9.640;2023-06-10T06:52:50;7.85;;;5.95;;
18883;SDS011;9574;47.282;9.640;2023-06-10T06:55:17;8.68;;;5.97;;
18883;SDS011;9574;47.282;9.640;2023-06-10T06:57:44;8.90;;;6.15;;
18883;SDS011;9574;47.282;9.640;2023-06-10T07:00:11;10.50;;;6.32;;
18883;SDS011;9574;47.282;9.640;2023-06-10T07:02:39;7.85;;;5.90;;
18883;SDS011;9574;47.282;9.640;2023-06-10T07:05:07;8.07;;;6.10;;
18883;SDS011;9574;47.282;9.640;2023-06-10T07:07:35;9.07;;;6.00;;
18883;SDS011;9574;47.282;9.640;2023-06-10T07:10:02;9.32;;;6.68;;
18883;SDS011;9574;47.282;9.640;2023-06-10T07:12:29;8.63;;;6.10;;
18883;SDS011;9574;47.282;9.640;2023-06-10T07:14:56;9.05;;;6.50;;
18883;SDS011;9574;47.282;9.640;2023-06-10T07:17:23;9.15;;;6.50;;
18883;SDS011;9574;47.282;9.640;2023-06-10T07:19:50;9.40;;;7.10;;
18883;SDS011;9574;47.282;9.640;2023-06-10T07:22:18;11.23;;;6.85;;
18883;SDS011;9574;47.282;9.640;2023-06-10T07:24:45;9.02;;;6.80;;
18883;SDS011;9574;47.282;9.640;2023-06-10T07:27:12;10.20;;;7.18;;
18883;SDS011;9574;47.282;9.640;2023-06-10T07:29:39;10.80;;;7.82;;
18883;SDS011;9574;47.282;9.640;2023-06-10T07:32:06;10.70;;;6.80;;
18883;SDS011;9574;47.282;9.640;2023-06-10T07:34:34;9.45;;;6.85;;
18883;SDS011;9574;47.282;9.640;2023-06-10T07:37:01;8.77;;;6.63;;
18883;SDS011;9574;47.282;9.640;2023-06-10T07:39:29;12.10;;;6.80;;
18883;SDS011;9574;47.282;9.640;2023-06-10T07:41:56;11.15;;;7.53;;
18883;SDS011;9574;47.282;9.640;2023-06-10T07:44:23;8.55;;;6.78;;
18883;SDS011;9574;47.282;9.640;2023-06-10T07:46:50;9.02;;;6.93;;
18883;SDS011;9574;47.282;9.640;2023-06-10T07:49:17;8.60;;;6.45;;
18883;SDS011;9574;47.282;9.640;2023-06-10T07:51:44;12.25;;;7.65;;
18883;SDS011;9574;47.282;9.640;2023-06-10T07:54:11;7.50;;;6.10;;
18883;SDS011;9574;47.282;9.640;2023-06-10T07:56:40;11.93;;;7.80;;
18883;SDS011;9574;47.282;9.640;2023-06-10T07:59:07;20.95;;;8.23;;
18883;SDS011;9574;47.282;9.640;2023-06-10T08:01:34;10.40;;;6.93;;
18883;SDS011;9574;47.282;9.640;2023-06-10T08:04:03;8.40;;;6.68;;
18883;SDS011;9574;47.282;9.640;2023-06-10T08:06:30;9.73;;;7.32;;
18883;SDS011;9574;47.282;9.640;2023-06-10T08:08:57;9.00;;;6.28;;
18883;SDS011;9574;47.282;9.640;2023-06-10T08:11:25;7.82;;;6.28;;
18883;SDS011;9574;47.282;9.640;2023-06-10T08:13:56;12.40;;;7.60;;
18883;SDS011;9574;47.282;9.640;2023-06-10T08:16:23;8.82;;;6.53;;
18883;SDS011;9574;47.282;9.640;2023-06-10T08:18:50;8.90;;;6.75;;
18883;SDS011;9574;47.282;9.640;2023-06-10T08:21:18;10.07;;;6.93;;
18883;SDS011;9574;47.282;9.640;2023-06-10T08:23:45;8.50;;;6.03;;
18883;SDS011;9574;47.282;9.640;2023-06-10T08:26:12;7.65;;;6.13;;
18883;SDS011;9574;47.282;9.640;2023-06-10T08:28:39;8.02;;;7.15;;
18883;SDS011;9574;47.282;9.640;2023-06-10T08:31:08;11.48;;;7.10;;
18883;SDS011;9574;47.282;9.640;2023-06-10T08:33:35;7.55;;;6.15;;
18883;SDS011;9574;47.282;9.640;2023-06-10T08:36:02;7.40;;;6.30;;
18883;SDS011;9574;47.282;9.640;2023-06-10T08:38:32;6.50;;;5.75;;
18883;SDS011;9574;47.282;9.640;2023-06-10T08:40:59;8.85;;;6.25;;
18883;SDS011;9574;47.282;9.640;2023-06-10T08:43:29;7.55;;;6.18;;
18883;SDS011;9574;47.282;9.640;2023-06-10T08:46:01;8.82;;;6.47;;
18883;SDS011;9574;47.282;9.640;2023-06-10T08:48:30;7.90;;;6.22;;
18883;SDS011;9574;47.282;9.640;2023-06-10T08:51:01;8.68;;;6.55;;
18883;SDS011;9574;47.282;9.640;2023-06-10T08:53:30;9.05;;;6.82;;
18883;SDS011;9574;47.282;9.640;2023-06-10T08:56:00;7.78;;;6.50;;
18883;SDS011;9574;47.282;9.640;2023-06-10T08:58:28;11.50;;;6.80;;
18883;SDS011;9574;47.282;9.640;2023-06-10T09:00:55;8.43;;;6.72;;
18883;SDS011;9574;47.282;9.640;2023-06-10T09:03:24;7.43;;;6.53;;
18883;SDS011;9574;47.282;9.640;2023-06-10T09:05:53;12.77;;;7.80;;
18883;SDS011;9574;47.282;9.640;2023-06-10T09:08:25;8.80;;;6.78;;
18883;SDS011;9574;47.282;9.640;2023-06-10T09:10:52;11.52;;;6.95;;
18883;SDS011;9574;47.282;9.640;2023-06-10T09:13:19;9.95;;;7.68;;
18883;SDS011;9574;47.282;9.640;2023-06-10T09:15:47;10.25;;;7.03;;
18883;SDS011;9574;47.282;9.640;2023-06-10T09:18:16;11.27;;;7.63;;
18883;SDS011;9574;47.282;9.640;2023-06-10T09:20:43;9.00;;;7.15;;
18883;SDS011;9574;47.282;9.640;2023-06-10T09:23:11;10.70;;;7.60;;
18883;SDS011;9574;47.282;9.640;2023-06-10T09:25:39;9.68;;;7.20;;
18883;SDS011;9574;47.282;9.640;2023-06-10T09:28:12;7.22;;;6.43;;
18883;SDS011;9574;47.282;9.640;2023-06-10T09:30:39;9.05;;;7.55;;
18883;SDS011;9574;47.282;9.640;2023-06-10T09:33:09;8.00;;;6.80;;
18883;SDS011;9574;47.282;9.640;2023-06-10T09:35:37;12.65;;;7.18;;
18883;SDS011;9574;47.282;9.640;2023-06-10T09:38:19;11.32;;;6.80;;
18883;SDS011;9574;47.282;9.640;2023-06-10T09:40:50;11.77;;;8.07;;
18883;SDS011;9574;47.282;9.640;2023-06-10T09:43:17;9.35;;;7.38;;
18883;SDS011;9574;47.282;9.640;2023-06-10T09:45:47;9.38;;;7.28;;
18883;SDS011;9574;47.282;9.640;2023-06-10T09:48:14;9.73;;;6.75;;
18883;SDS011;9574;47.282;9.640;2023-06-10T09:50:41;9.45;;;7.28;;
18883;SDS011;9574;47.282;9.640;2023-06-10T09:53:09;9.35;;;7.13;;
18883;SDS011;9574;47.282;9.640;2023-06-10T09:55:38;9.00;;;7.07;;
18883;SDS011;9574;47.282;9.640;2023-06-10T09:58:06;9.05;;;7.03;;
18883;SDS011;9574;47.282;9.640;2023-06-10T10:00:33;9.05;;;7.18;;
18883;SDS011;9574;47.282;9.640;2023-06-10T10:03:01;12.10;;;6.88;;
18883;SDS011;9574;47.282;9.640;2023-06-10T10:05:28;11.88;;;7.07;;
18883;SDS011;9574;47.282;9.640;2023-06-10T10:07:55;9.55;;;7.10;;
18883;SDS011;9574;47.282;9.640;2023-06-10T10:10:22;7.90;;;6.50;;
18883;SDS011;9574;47.282;9.640;2023-06-10T10:12:53;9.02;;;6.95;;
18883;SDS011;9574;47.282;9.640;2023-06-10T10:15:23;9.45;;;7.15;;
18883;SDS011;9574;47.282;9.640;2023-06-10T10:17:55;9.32;;;7.45;;
18883;SDS011;9574;47.282;9.640;2023-06-10T10:20:30;9.52;;;7.25;;
18883;SDS011;9574;47.282;9.640;2023-06-10T10:23:02;10.13;;;6.95;;
18883;SDS011;9574;47.282;9.640;2023-06-10T10:25:32;7.63;;;6.53;;
18883;SDS011;9574;47.282;9.640;2023-06-10T10:28:05;8.55;;;6.45;;
18883;SDS011;9574;47.282;9.640;2023-06-10T10:30:37;8.23;;;7.07;;
18883;SDS011;9574;47.282;9.640;2023-06-10T10:33:06;9.63;;;7.07;;
18883;SDS011;9574;47.282;9.640;2023-06-10T10:35:38;7.80;;;6.65;;
18883;SDS011;9574;47.282;9.640;2023-06-10T10:38:06;8.20;;;6.90;;
18883;SDS011;9574;47.282;9.640;2023-06-10T10:40:35;9.38;;;6.30;;
18883;SDS011;9574;47.282;9.640;2023-06-10T10:43:04;7.45;;;6.15;;
18883;SDS011;9574;47.282;9.640;2023-06-10T10:45:33;7.30;;;6.60;;
18883;SDS011;9574;47.282;9.640;2023-06-10T10:48:04;7.25;;;6.53;;
18883;SDS011;9574;47.282;9.640;2023-06-10T10:50:36;8.13;;;6.80;;
18883;SDS011;9574;47.282;9.640;2023-06-10T10:53:04;8.05;;;5.65;;
18883;SDS011;9574;47.282;9.640;2023-06-10T10:55:32;9.00;;;6.78;;
18883;SDS011;9574;47.282;9.640;2023-06-10T10:57:59;7.53;;;5.50;;
18883;SDS011;9574;47.282;9.640;2023-06-10T11:00:31;10.27;;;6.65;;
18883;SDS011;9574;47.282;9.640;2023-06-10T11:03:00;8.38;;;6.80;;
18883;SDS011;9574;47.282;9.640;2023-06-10T11:05:35;7.50;;;6.32;;
18883;SDS011;9574;47.282;9.640;2023-06-10T11:08:04;10.55;;;7.45;;
18883;SDS011;9574;47.282;9.640;2023-06-10T11:10:33;9.23;;;6.57;;
18883;SDS011;9574;47.282;9.640;2023-06-10T11:13:06;7.50;;;6.70;;
18883;SDS011;9574;47.282;9.640;2023-06-10T11:15:38;8.07;;;6.85;;
18883;SDS011;9574;47.282;9.640;2023-06-10T11:18:12;7.90;;;7.10;;
18883;SDS011;9574;47.282;9.640;2023-06-10T11:20:51;7.85;;;6.35;;
18883;SDS011;9574;47.282;9.640;2023-06-10T11:26:29;6.90;;;5.95;;
18883;SDS011;9574;47.282;9.640;2023-06-10T11:29:02;9.07;;;6.20;;
18883;SDS011;9574;47.282;9.640;2023-06-10T11:31:32;8.95;;;5.97;;
18883;SDS011;9574;47.282;9.640;2023-06-10T11:34:01;9.65;;;6.07;;
18883;SDS011;9574;47.282;9.640;2023-06-10T11:36:30;8.35;;;5.75;;
18883;SDS011;9574;47.282;9.640;2023-06-10T11:39:09;7.95;;;5.38;;
18883;SDS011;9574;47.282;9.640;2023-06-10T11:41:39;7.40;;;5.97;;
18883;SDS011;9574;47.282;9.640;2023-06-10T11:44:11;6.18;;;5.43;;
18883;SDS011;9574;47.282;9.640;2023-06-10T11:46:39;5.55;;;5.05;;
18883;SDS011;9574;47.282;9.640;2023-06-10T11:49:08;6.07;;;5.32;;
18883;SDS011;9574;47.282;9.640;2023-06-10T11:51:35;6.38;;;5.07;;
18883;SDS011;9574;47.282;9.640;2023-06-10T11:54:04;6.35;;;5.28;;
18883;SDS011;9574;47.282;9.640;2023-06-10T11:56:31;7.47;;;5.38;;
18883;SDS011;9574;47.282;9.640;2023-06-10T11:58:59;6.88;;;5.63;;
18883;SDS011;9574;47.282;9.640;2023-06-10T12:01:31;7.50;;;5.68;;
18883;SDS011;9574;47.282;9.640;2023-06-10T12:04:00;6.78;;;5.50;;
18883;SDS011;9574;47.282;9.640;2023-06-10T12:06:37;6.53;;;5.88;;
18883;SDS011;9574;47.282;9.640;2023-06-10T12:09:05;10.82;;;7.10;;
18883;SDS011;9574;47.282;9.640;2023-06-10T12:11:33;6.28;;;5.65;;
18883;SDS011;9574;47.282;9.640;2023-06-10T12:14:01;7.55;;;5.70;;
18883;SDS011;9574;47.282;9.640;2023-06-10T12:16:29;5.90;;;4.80;;
18883;SDS011;9574;47.282;9.640;2023-06-10T12:19:01;6.53;;;5.47;;
18883;SDS011;9574;47.282;9.640;2023-06-10T12:21:29;5.50;;;4.88;;
18883;SDS011;9574;47.282;9.640;2023-06-10T12:24:01;6.20;;;5.45;;
18883;SDS011;9574;47.282;9.640;2023-06-10T12:26:35;6.95;;;5.55;;
18883;SDS011;9574;47.282;9.640;2023-06-10T12:29:12;6.82;;;5.38;;
18883;SDS011;9574;47.282;9.640;2023-06-10T12:31:56;5.95;;;5.15;;
18883;SDS011;9574;47.282;9.640;2023-06-10T12:34:31;6.55;;;5.25;;
18883;SDS011;9574;47.282;9.640;2023-06-10T12:37:03;6.90;;;5.53;;
18883;SDS011;9574;47.282;9.640;2023-06-10T12:39:31;7.10;;;5.47;;
18883;SDS011;9574;47.282;9.640;2023-06-10T12:41:59;7.93;;;5.97;;
18883;SDS011;9574;47.282;9.640;2023-06-10T12:44:31;9.65;;;6.20;;
18883;SDS011;9574;47.282;9.640;2023-06-10T12:47:00;7.85;;;5.72;;
18883;SDS011;9574;47.282;9.640;2023-06-10T12:49:32;6.93;;;5.80;;
18883;SDS011;9574;47.282;9.640;2023-06-10T12:52:00;7.45;;;6.43;;
18883;SDS011;9574;47.282;9.640;2023-06-10T12:54:29;7.50;;;6.13;;
18883;SDS011;9574;47.282;9.640;2023-06-10T12:56:56;6.78;;;6.07;;
18883;SDS011;9574;47.282;9.640;2023-06-10T12:59:23;7.43;;;6.63;;
18883;SDS011;9574;47.282;9.640;2023-06-10T13:01:50;10.02;;;6.75;;
18883;SDS011;9574;47.282;9.640;2023-06-10T13:04:19;7.70;;;6.07;;
18883;SDS011;9574;47.282;9.640;2023-06-10T13:06:47;7.30;;;6.53;;
18883;SDS011;9574;47.282;9.640;2023-06-10T13:09:14;7.85;;;7.05;;
18883;SDS011;9574;47.282;9.640;2023-06-10T13:11:43;8.80;;;6.55;;
18883;SDS011;9574;47.282;9.640;2023-06-10T13:14:10;8.68;;;6.18;;
18883;SDS011;9574;47.282;9.640;2023-06-10T13:16:37;7.75;;;6.90;;
18883;SDS011;9574;47.282;9.640;2023-06-10T13:19:05;8.70;;;6.03;;
18883;SDS011;9574;47.282;9.640;2023-06-10T13:21:33;7.00;;;6.30;;
18883;SDS011;9574;47.282;9.640;2023-06-10T13:24:01;7.53;;;6.20;;
18883;SDS011;9574;47.282;9.640;2023-06-10T13:26:28;7.10;;;6.40;;
18883;SDS011;9574;47.282;9.640;2023-06-10T13:28:55;6.78;;;5.65;;
18883;SDS011;9574;47.282;9.640;2023-06-10T13:31:22;7.68;;;6.57;;
18883;SDS011;9574;47.282;9.640;2023-06-10T13:33:49;8.23;;;6.68;;
18883;SDS011;9574;47.282;9.640;2023-06-10T13:36:18;6.30;;;5.70;;
18883;SDS011;9574;47.282;9.640;2023-06-10T13:38:46;10.48;;;5.72;;
18883;SDS011;9574;47.282;9.640;2023-06-10T13:41:13;8.48;;;5.72;;
18883;SDS011;9574;47.282;9.640;2023-06-10T13:43:40;6.28;;;5.68;;
18883;SDS011;9574;47.282;9.640;2023-06-10T13:46:07;5.45;;;4.90;;
18883;SDS011;9574;47.282;9.640;2023-06-10T13:48:34;6.47;;;5.55;;
18883;SDS011;9574;47.282;9.640;2023-06-10T13:51:01;6.57;;;5.45;;
18883;SDS011;9574;47.282;9.640;2023-06-10T13:53:28;5.85;;;5.30;;
18883;SDS011;9574;47.282;9.640;2023-06-10T13:55:56;7.10;;;5.55;;
18883;SDS011;9574;47.282;9.640;2023-06-10T13:58:23;7.53;;;5.25;;
18883;SDS011;9574;47.282;9.640;2023-06-10T14:00:51;6.55;;;5.50;;
18883;SDS011;9574;47.282;9.640;2023-06-10T14:03:18;8.57;;;5.35;;
18883;SDS011;9574;47.282;9.640;2023-06-10T14:05:45;6.07;;;5.40;;
18883;SDS011;9574;47.282;9.640;2023-06-10T14:08:12;6.13;;;5.53;;
18883;SDS011;9574;47.282;9.640;2023-06-10T14:10:39;6.05;;;5.10;;
18883;SDS011;9574;47.282;9.640;2023-06-10T14:13:07;5.95;;;5.32;;
18883;SDS011;9574;47.282;9.640;2023-06-10T14:15:34;5.88;;;5.28;;
18883;SDS011;9574;47.282;9.640;2023-06-10T14:18:02;6.72;;;5.50;;
18883;SDS011;9574;47.282;9.640;2023-06-10T14:20:29;5.45;;;4.95;;
18883;SDS011;9574;47.282;9.640;2023-06-10T14:22:56;5.57;;;5.05;;
18883;SDS011;9574;47.282;9.640;2023-06-10T14:25:24;6.05;;;5.45;;
18883;SDS011;9574;47.282;9.640;2023-06-10T14:27:51;5.82;;;5.13;;
18883;SDS011;9574;47.282;9.640;2023-06-10T14:30:19;5.80;;;5.05;;
18883;SDS011;9574;47.282;9.640;2023-06-10T14:32:46;5.78;;;5.07;;
18883;SDS011;9574;47.282;9.640;2023-06-10T14:35:13;8.40;;;5.10;;
18883;SDS011;9574;47.282;9.640;2023-06-10T14:37:40;5.22;;;4.72;;
18883;SDS011;9574;47.282;9.640;2023-06-10T14:40:07;5.22;;;4.60;;
18883;SDS011;9574;47.282;9.640;2023-06-10T14:42:35;6.85;;;5.75;;
18883;SDS011;9574;47.282;9.640;2023-06-10T14:45:02;5.82;;;5.20;;
18883;SDS011;9574;47.282;9.640;2023-06-10T14:47:31;5.38;;;4.72;;
18883;SDS011;9574;47.282;9.640;2023-06-10T14:49:58;5.55;;;4.88;;
18883;SDS011;9574;47.282;9.640;2023-06-10T14:52:25;5.68;;;4.78;;
18883;SDS011;9574;47.282;9.640;2023-06-10T14:54:52;5.80;;;5.10;;
18883;SDS011;9574;47.282;9.640;2023-06-10T14:57:19;5.40;;;4.90;;
18883;SDS011;9574;47.282;9.640;2023-06-10T14:59:46;5.80;;;5.20;;
18883;SDS011;9574;47.282;9.640;2023-06-10T15:02:13;6.70;;;5.10;;
18883;SDS011;9574;47.282;9.640;2023-06-10T15:04:42;7.20;;;5.03;;
18883;SDS011;9574;47.282;9.640;2023-06-10T15:07:09;4.82;;;4.32;;
18883;SDS011;9574;47.282;9.640;2023-06-10T15:09:36;5.68;;;5.10;;